KBRD/BRD METAR and TAF weather

Enter ICAO airport designator
Station Type Date Time Source
KBRD METAR 2022/01/28 23:53 UTC NOAA

KBRD 282353Z AUTO 25006KT 10SM CLR M11/M16 A3018 RMK AO2 SLP257 60000 T11111161 11078 21144 58001 TSNO


Station Type Date Time Source
KBRD Decoded METAR 2022/01/28 23:53 UTC NOAA

BRAINERD-CROW WING CO AIRPORT , MN, United States (KBRD) 46-24N 94-08W 372M
Jan 28, 2022 - 06:53 PM EST / 2022.01.28 2353 UTC
Wind: from the WSW (250 degrees) at 7 MPH (6 KT):0
Visibility: 10 mile(s):0
Sky conditions: clear
Temperature: 12.0 F (-11.1 C)
Windchill: 1 F (-17 C):1
Dew Point: 3.0 F (-16.1 C)
Relative Humidity: 66%
Pressure (altimeter): 30.18 in. Hg (1022 hPa)
Pressure tendency: 0.00 inches (0.1 hPa) lower than three hours ago
ob: KBRD 282353Z AUTO 25006KT 10SM CLR M11/M16 A3018 RMK AO2 SLP257 60000 T11111161 11078 21144 58001 TSNO
cycle: 0

Station Type Date Time Source
KBRD TAF 2022/01/28 18:40 UTC NOAA

TAF KBRD 281738Z 2818/2918 24006KT P6SM VCSH BKN040
TEMPO 2818/2819 5SM -SHSN
FM290100 00000KT P6SM BKN025
FM290600 VRB03KT P6SM BKN019
FM291100 17006KT P6SM BKN040

Example: see airport list